createdAt,value
2019-02-23T00:04:17.094Z,-1.40
2019-02-23T00:06:52.908Z,-1.40
2019-02-23T00:09:28.214Z,-1.40
2019-02-23T00:12:04.677Z,-1.40
2019-02-23T00:14:40.406Z,-1.40
2019-02-23T00:17:15.759Z,-1.40
2019-02-23T00:19:53.152Z,-1.40
2019-02-23T00:22:28.266Z,-1.40
2019-02-23T00:25:04.534Z,-1.40
2019-02-23T00:27:39.576Z,-1.50
2019-02-23T00:30:14.668Z,-1.50
2019-02-23T00:32:50.074Z,-1.50
2019-02-23T00:35:25.227Z,-1.50
2019-02-23T00:45:45.380Z,-1.50
2019-02-23T00:48:20.779Z,-1.50
2019-02-23T00:50:55.906Z,-1.40
2019-02-23T00:53:31.268Z,-1.40
2019-02-23T00:56:06.373Z,-1.40
2019-02-23T00:58:41.429Z,-1.40
2019-02-23T01:03:52.612Z,-1.40
2019-02-23T01:06:28.175Z,-1.40
2019-02-23T01:09:03.565Z,-1.40
2019-02-23T01:11:40.901Z,-1.40
2019-02-23T01:14:15.916Z,-1.50
2019-02-23T01:16:51.794Z,-1.50
2019-02-23T01:19:26.861Z,-1.50
2019-02-23T01:22:01.946Z,-1.40
2019-02-23T01:24:36.993Z,-1.40
2019-02-23T01:27:12.106Z,-1.50
2019-02-23T01:29:47.143Z,-1.50
2019-02-23T01:32:22.651Z,-1.50
2019-02-23T01:37:32.985Z,-1.50
2019-02-23T01:40:10.090Z,-1.60
2019-02-23T01:42:45.537Z,-1.50
2019-02-23T01:45:21.250Z,-1.50
2019-02-23T01:47:56.626Z,-1.50
2019-02-23T01:50:40.666Z,-1.50
2019-02-23T01:53:28.997Z,-1.50
2019-02-23T01:56:04.075Z,-1.60
2019-02-23T01:58:39.231Z,-1.70
2019-02-23T02:01:14.334Z,-1.80
2019-02-23T02:03:49.405Z,-1.90
2019-02-23T02:06:24.439Z,-1.80
2019-02-23T02:08:59.473Z,-1.90
2019-02-23T02:11:34.578Z,-1.90
2019-02-23T02:14:09.917Z,-1.90
2019-02-23T02:20:19.063Z,-2.00
2019-02-23T02:22:54.208Z,-2.00
2019-02-23T02:25:29.549Z,-2.10
2019-02-23T02:28:04.927Z,-2.10
2019-02-23T02:30:39.962Z,-2.10
2019-02-23T02:33:15.277Z,-2.10
2019-02-23T02:35:51.296Z,-2.10
2019-02-23T02:38:26.335Z,-2.10
2019-02-23T02:41:01.440Z,-2.10
2019-02-23T02:43:36.482Z,-2.10
2019-02-23T02:46:11.504Z,-2.10
2019-02-23T02:48:46.553Z,-2.20
2019-02-23T02:51:23.576Z,-2.20
2019-02-23T02:53:58.753Z,-2.20
2019-02-23T02:59:11.494Z,-2.20
2019-02-23T03:01:46.543Z,-2.20
2019-02-23T03:04:21.660Z,-2.20
2019-02-23T03:09:32.966Z,-2.30
2019-02-23T03:14:43.927Z,-2.30
2019-02-23T03:17:20.128Z,-2.30
2019-02-23T03:19:55.145Z,-2.30
2019-02-23T03:22:30.221Z,-2.40
2019-02-23T03:25:07.038Z,-2.40
2019-02-23T03:27:42.158Z,-2.40
2019-02-23T03:30:17.186Z,-2.50
2019-02-23T03:35:26.787Z,-2.50
2019-02-23T03:40:37.345Z,-2.50
2019-02-23T03:43:12.417Z,-2.50
2019-02-23T03:45:47.463Z,-2.50
2019-02-23T03:48:22.842Z,-2.40
2019-02-23T03:50:57.886Z,-2.40
2019-02-23T03:53:33.367Z,-2.40
2019-02-23T03:56:08.899Z,-2.40
2019-02-23T04:09:05.967Z,-2.20
2019-02-23T04:11:42.633Z,-2.20
2019-02-23T04:24:37.193Z,-2.30
2019-02-23T04:42:43.248Z,-2.20
2019-02-23T04:50:28.246Z,-2.30
2019-02-23T04:53:03.318Z,-2.40
2019-02-23T05:05:59.320Z,-2.60
2019-02-23T05:08:34.378Z,-2.70
2019-02-23T05:11:09.401Z,-2.70
2019-02-23T05:13:44.544Z,-2.70
2019-02-23T05:16:19.580Z,-2.70
2019-02-23T05:18:54.695Z,-2.70
2019-02-23T05:21:30.182Z,-2.70
2019-02-23T05:24:05.627Z,-2.70
2019-02-23T05:26:40.719Z,-2.70
2019-02-23T05:29:15.750Z,-2.70
2019-02-23T05:31:50.786Z,-2.80
2019-02-23T05:34:26.073Z,-2.80
2019-02-23T05:37:02.180Z,-2.90
2019-02-23T05:39:38.276Z,-2.80
2019-02-23T05:42:13.939Z,-2.90
2019-02-23T05:44:49.002Z,-2.90
2019-02-23T05:47:24.067Z,-3.00
2019-02-23T05:49:59.198Z,-2.90
2019-02-23T05:52:39.908Z,-3.00
2019-02-23T05:55:15.258Z,-2.90
2019-02-23T05:57:50.330Z,-2.90
2019-02-23T06:00:25.475Z,-2.90
2019-02-23T06:03:02.032Z,-3.00
2019-02-23T06:05:37.445Z,-3.00
2019-02-23T06:08:14.429Z,-3.00
2019-02-23T06:10:49.588Z,-3.00
2019-02-23T06:13:24.899Z,-3.00
2019-02-23T06:15:59.945Z,-3.10
2019-02-23T06:18:34.966Z,-3.00
2019-02-23T06:21:10.005Z,-3.00
2019-02-23T06:23:45.129Z,-3.00
2019-02-23T06:26:20.514Z,-3.00
2019-02-23T06:28:55.554Z,-2.90
2019-02-23T06:31:30.578Z,-2.90
2019-02-23T06:34:15.565Z,-2.80
2019-02-23T06:36:42.786Z,-2.80
2019-02-23T06:39:17.843Z,-2.80
2019-02-23T06:41:53.674Z,-2.70
2019-02-23T06:54:48.250Z,-2.30
2019-02-23T06:57:23.674Z,-2.20
2019-02-23T06:59:58.761Z,-2.10
2019-02-23T07:02:33.804Z,-1.90
2019-02-23T07:05:08.985Z,-1.30
2019-02-23T07:07:44.431Z,-0.90
2019-02-23T07:10:19.518Z,-0.30
2019-02-23T07:12:55.750Z,0.20
2019-02-23T07:15:31.288Z,0.80
2019-02-23T07:18:06.444Z,0.90
2019-02-23T07:25:54.197Z,0.90
2019-02-23T07:28:30.156Z,0.70
2019-02-23T07:33:40.333Z,0.30
2019-02-23T07:36:15.379Z,0.10
2019-02-23T07:38:50.792Z,0.10
2019-02-23T07:44:00.421Z,0.30
2019-02-23T07:46:35.810Z,0.30
2019-02-23T07:49:10.840Z,0.70
2019-02-23T07:51:46.387Z,1.40
2019-02-23T07:54:21.743Z,2.00
2019-02-23T07:56:58.077Z,2.50
2019-02-23T07:59:33.126Z,2.60
2019-02-23T08:02:08.235Z,2.70
2019-02-23T08:04:43.335Z,2.80
2019-02-23T08:07:18.750Z,2.90
2019-02-23T08:09:54.802Z,3.20
2019-02-23T08:12:29.872Z,3.60
2019-02-23T08:15:08.971Z,4.00
2019-02-23T08:17:45.644Z,4.50
2019-02-23T08:20:20.759Z,5.40
2019-02-23T08:22:55.849Z,6.10
2019-02-23T08:25:31.967Z,6.80
2019-02-23T08:35:53.055Z,7.30
2019-02-23T08:38:28.496Z,7.10
2019-02-23T08:41:05.499Z,7.50
2019-02-23T08:43:41.560Z,7.90
2019-02-23T08:46:16.808Z,8.50
2019-02-23T08:56:37.661Z,9.00
2019-02-23T08:59:13.422Z,8.40
2019-02-23T09:12:07.539Z,9.10
2019-02-23T09:17:18.562Z,8.90
2019-02-23T09:19:56.775Z,9.60
2019-02-23T09:22:32.385Z,9.50
2019-02-23T09:27:45.456Z,9.90
2019-02-23T09:30:21.028Z,9.70
2019-02-23T09:35:33.074Z,8.90
2019-02-23T09:38:11.182Z,9.20
2019-02-23T09:40:46.871Z,9.50
2019-02-23T09:43:24.022Z,10.10
2019-02-23T09:48:36.005Z,10.60
2019-02-23T09:56:25.882Z,11.70
2019-02-23T10:01:37.523Z,12.60
2019-02-23T10:04:13.151Z,12.50
2019-02-23T10:09:23.816Z,12.30
2019-02-23T10:11:58.977Z,11.80
2019-02-23T10:14:34.488Z,10.70
2019-02-23T10:19:45.277Z,8.80
2019-02-23T10:27:30.083Z,11.00
2019-02-23T10:32:44.518Z,11.10
2019-02-23T10:35:20.585Z,11.90
2019-02-23T10:37:59.694Z,11.80
2019-02-23T10:48:20.105Z,12.50
2019-02-23T10:50:55.250Z,13.00
2019-02-23T11:01:17.356Z,14.00
2019-02-23T11:03:52.587Z,14.20
2019-02-23T11:09:06.313Z,14.90
2019-02-23T11:11:45.130Z,15.00
2019-02-23T11:14:26.133Z,15.00
2019-02-23T11:17:01.438Z,15.20
2019-02-23T11:22:12.867Z,15.60
2019-02-23T11:24:52.428Z,15.90
2019-02-23T11:27:27.692Z,16.30
2019-02-23T11:30:04.940Z,16.40
2019-02-23T11:32:41.120Z,16.70
2019-02-23T11:35:17.872Z,16.50
2019-02-23T11:37:53.161Z,16.60
2019-02-23T11:40:28.777Z,16.40
2019-02-23T11:43:04.244Z,16.50
2019-02-23T11:45:39.522Z,16.50
2019-02-23T11:48:15.799Z,17.20
2019-02-23T11:50:51.942Z,17.10
2019-02-23T11:53:27.128Z,17.40
2019-02-23T11:58:36.963Z,17.10
2019-02-23T12:01:12.143Z,15.80
2019-02-23T12:03:49.145Z,15.50
2019-02-23T12:06:25.271Z,15.40
2019-02-23T12:09:00.361Z,15.40
2019-02-23T12:11:36.731Z,15.10
2019-02-23T12:14:11.966Z,15.10
2019-02-23T12:16:47.180Z,15.00
2019-02-23T12:19:22.426Z,14.10
2019-02-23T12:21:57.512Z,13.30
2019-02-23T12:24:34.629Z,12.10
2019-02-23T12:27:11.251Z,11.20
2019-02-23T12:29:47.617Z,10.50
2019-02-23T12:32:22.822Z,9.70
2019-02-23T12:34:57.895Z,8.80
2019-02-23T12:37:34.967Z,8.20
2019-02-23T12:40:12.476Z,8.00
2019-02-23T12:42:49.037Z,7.90
2019-02-23T12:45:24.181Z,7.80
2019-02-23T12:47:59.359Z,7.70
2019-02-23T12:50:34.425Z,7.70
2019-02-23T12:53:11.043Z,7.70
2019-02-23T12:55:48.429Z,7.60
2019-02-23T12:58:24.462Z,7.50
2019-02-23T13:00:59.494Z,7.60
2019-02-23T13:03:34.583Z,7.50
2019-02-23T13:06:11.080Z,7.30
2019-02-23T13:09:07.391Z,7.30
2019-02-23T13:11:53.836Z,7.30
2019-02-23T13:14:34.915Z,7.30
2019-02-23T13:17:17.639Z,7.40
2019-02-23T13:20:13.249Z,7.60
2019-02-23T13:23:10.206Z,7.70
2019-02-23T13:26:18.461Z,7.70
2019-02-23T13:29:17.925Z,7.70
2019-02-23T13:32:13.834Z,7.60
2019-02-23T13:35:10.735Z,7.50
2019-02-23T13:37:48.876Z,7.50
2019-02-23T13:40:48.036Z,7.40
2019-02-23T13:43:45.148Z,7.30
2019-02-23T13:46:42.932Z,7.20
2019-02-23T13:49:46.767Z,7.10
2019-02-23T13:52:24.904Z,7.10
2019-02-23T13:55:09.398Z,6.90
2019-02-23T13:57:50.722Z,6.80
2019-02-23T14:00:32.379Z,6.70
2019-02-23T14:03:38.353Z,6.50
2019-02-23T14:06:38.918Z,6.40
2019-02-23T14:09:29.537Z,6.40
2019-02-23T14:12:20.412Z,6.30
2019-02-23T14:15:16.593Z,6.20
2019-02-23T14:18:04.099Z,6.20
2019-02-23T14:20:48.775Z,6.10
2019-02-23T14:23:39.301Z,6.00
2019-02-23T14:26:34.079Z,5.90
2019-02-23T14:29:21.643Z,5.90
2019-02-23T14:32:03.520Z,5.80
2019-02-23T14:34:51.225Z,5.80
2019-02-23T14:37:36.058Z,5.70
2019-02-23T14:40:21.146Z,5.60
2019-02-23T14:43:08.920Z,5.50
2019-02-23T14:46:20.911Z,5.50
2019-02-23T14:49:06.545Z,5.50
2019-02-23T14:52:21.877Z,5.50
2019-02-23T14:55:12.447Z,5.50
2019-02-23T14:57:59.762Z,5.40
2019-02-23T15:00:59.225Z,5.30
2019-02-23T15:03:42.422Z,5.30
2019-02-23T15:06:26.997Z,5.30
2019-02-23T15:09:21.595Z,5.30
2019-02-23T15:12:12.942Z,5.30
2019-02-23T15:15:00.561Z,5.30
2019-02-23T15:17:44.875Z,5.30
2019-02-23T15:20:26.180Z,5.40
2019-02-23T15:23:17.403Z,5.30
2019-02-23T15:26:18.745Z,5.30
2019-02-23T15:29:07.195Z,5.20
2019-02-23T15:31:48.050Z,5.10
2019-02-23T15:34:48.868Z,5.00
2019-02-23T15:37:29.771Z,5.00
2019-02-23T15:40:17.819Z,4.90
2019-02-23T15:42:59.713Z,4.90
2019-02-23T15:46:00.448Z,4.90
2019-02-23T15:48:58.124Z,4.80
2019-02-23T15:51:34.726Z,4.90
2019-02-23T15:54:10.152Z,4.80
2019-02-23T15:56:45.680Z,4.70
2019-02-23T15:59:21.018Z,4.70
2019-02-23T16:01:56.174Z,4.60
2019-02-23T16:04:31.315Z,4.60
2019-02-23T16:07:06.447Z,4.60
2019-02-23T16:09:41.479Z,4.50
2019-02-23T16:12:16.538Z,4.50
2019-02-23T16:14:51.643Z,4.40
2019-02-23T16:17:26.666Z,4.40
2019-02-23T16:20:01.721Z,4.30
2019-02-23T16:25:13.570Z,4.20
2019-02-23T16:27:48.965Z,4.10
2019-02-23T16:32:58.978Z,4.00
2019-02-23T16:35:34.101Z,3.90
2019-02-23T16:38:09.259Z,3.80
2019-02-23T16:40:44.649Z,3.80
2019-02-23T16:43:19.730Z,3.70
2019-02-23T16:45:54.748Z,3.70
2019-02-23T16:48:31.456Z,3.70
2019-02-23T16:51:06.476Z,3.60
2019-02-23T16:53:41.969Z,3.50
2019-02-23T16:56:17.008Z,3.40
2019-02-23T16:58:53.059Z,3.30
2019-02-23T17:01:28.066Z,3.30
2019-02-23T17:04:04.062Z,3.20
2019-02-23T17:06:39.090Z,3.20
2019-02-23T17:09:14.110Z,3.20
2019-02-23T17:11:49.489Z,3.10
2019-02-23T17:14:25.545Z,3.10
2019-02-23T17:19:37.866Z,3.10
2019-02-23T17:22:12.885Z,3.00
2019-02-23T17:24:48.994Z,3.00
2019-02-23T17:27:35.582Z,3.00
2019-02-23T17:30:01.086Z,3.00
2019-02-23T17:32:36.520Z,3.00
2019-02-23T17:35:11.855Z,3.00
2019-02-23T17:37:47.805Z,2.90
2019-02-23T17:40:22.838Z,2.80
2019-02-23T17:42:58.198Z,2.80
2019-02-23T17:45:33.206Z,2.80
2019-02-23T17:48:08.561Z,2.80
2019-02-23T17:50:43.909Z,2.80
2019-02-23T17:53:18.966Z,2.70
2019-02-23T17:55:54.075Z,2.70
2019-02-23T17:58:29.180Z,2.70
2019-02-23T18:01:04.618Z,2.70
2019-02-23T18:03:39.640Z,2.70
2019-02-23T18:06:15.051Z,2.70
2019-02-23T18:08:50.395Z,2.60
2019-02-23T18:11:25.846Z,2.60
2019-02-23T18:14:00.881Z,2.50
2019-02-23T18:16:36.728Z,2.50
2019-02-23T18:19:12.654Z,2.50
2019-02-23T18:21:48.538Z,2.50
2019-02-23T18:24:24.836Z,2.40
2019-02-23T18:26:59.938Z,2.40
2019-02-23T18:29:36.294Z,2.40
2019-02-23T18:32:11.314Z,2.40
2019-02-23T18:34:47.172Z,2.30
2019-02-23T18:37:22.638Z,2.30
2019-02-23T18:39:58.699Z,2.30
2019-02-23T18:42:34.722Z,2.30
2019-02-23T18:45:10.104Z,2.30
2019-02-23T18:47:45.823Z,2.30
2019-02-23T18:50:21.926Z,2.30
2019-02-23T18:52:57.218Z,2.20
2019-02-23T18:55:40.622Z,2.20
2019-02-23T18:58:09.016Z,2.10
2019-02-23T19:00:45.028Z,2.10
2019-02-23T19:03:20.502Z,2.10
2019-02-23T19:05:55.816Z,2.00
2019-02-23T19:08:31.833Z,2.00
2019-02-23T19:11:06.870Z,2.00
2019-02-23T19:13:42.376Z,1.90
2019-02-23T19:16:17.411Z,1.90
2019-02-23T19:18:52.510Z,1.90
2019-02-23T19:21:28.787Z,1.80
2019-02-23T19:24:04.534Z,1.80
2019-02-23T19:26:39.882Z,1.70
2019-02-23T19:29:14.981Z,1.80
2019-02-23T19:31:50.017Z,1.80
2019-02-23T19:34:25.503Z,1.70
2019-02-23T19:37:00.513Z,1.70
2019-02-23T19:39:35.566Z,1.70
2019-02-23T19:42:10.670Z,1.60
2019-02-23T19:44:46.653Z,1.60
2019-02-23T19:47:21.698Z,1.60
2019-02-23T19:49:58.529Z,1.60
2019-02-23T19:52:33.680Z,1.50
2019-02-23T19:55:11.926Z,1.50
2019-02-23T19:57:47.115Z,1.50
2019-02-23T20:00:22.507Z,1.50
2019-02-23T20:02:57.856Z,1.50
2019-02-23T20:05:33.300Z,1.40
2019-02-23T20:08:09.287Z,1.40
2019-02-23T20:10:44.327Z,1.40
2019-02-23T20:13:19.366Z,1.40
2019-02-23T20:15:54.863Z,1.40
2019-02-23T20:18:30.311Z,1.40
2019-02-23T20:21:06.400Z,1.40
2019-02-23T20:23:41.413Z,1.30
2019-02-23T20:26:16.582Z,1.40
2019-02-23T20:28:51.724Z,1.30
2019-02-23T20:31:27.161Z,1.30
2019-02-23T20:34:02.298Z,1.30
2019-02-23T20:36:37.398Z,1.30
2019-02-23T20:39:12.445Z,1.30
2019-02-23T20:41:48.087Z,1.30
2019-02-23T20:44:23.544Z,1.20
2019-02-23T20:46:58.973Z,1.30
2019-02-23T20:49:34.463Z,1.30
2019-02-23T20:52:09.549Z,1.30
2019-02-23T20:54:44.701Z,1.30
2019-02-23T20:57:19.832Z,1.30
2019-02-23T20:59:54.941Z,1.20
2019-02-23T21:02:30.414Z,1.30
2019-02-23T21:05:08.409Z,1.30
2019-02-23T21:07:43.769Z,1.20
2019-02-23T21:10:19.212Z,1.20
2019-02-23T21:12:54.650Z,1.10
2019-02-23T21:15:30.111Z,1.10
2019-02-23T21:18:05.225Z,1.00
2019-02-23T21:20:40.759Z,0.90
2019-02-23T21:23:16.059Z,0.90
2019-02-23T21:25:52.079Z,0.90
2019-02-23T21:28:27.111Z,0.80
2019-02-23T21:31:03.389Z,0.80
2019-02-23T21:33:38.438Z,0.70
2019-02-23T21:36:13.537Z,0.70
2019-02-23T21:38:48.606Z,0.80
2019-02-23T21:41:24.624Z,0.80
2019-02-23T21:43:59.649Z,0.90
2019-02-23T21:46:35.027Z,0.90
2019-02-23T21:49:10.475Z,0.90
2019-02-23T21:51:45.487Z,0.90
2019-02-23T21:54:21.255Z,1.00
2019-02-23T21:56:56.718Z,1.00
2019-02-23T21:59:32.260Z,1.00
2019-02-23T22:02:08.831Z,1.00
2019-02-23T22:04:44.267Z,1.00
2019-02-23T22:07:19.913Z,1.10
2019-02-23T22:09:55.522Z,1.00
2019-02-23T22:12:30.910Z,1.00
2019-02-23T22:15:07.544Z,1.00
2019-02-23T22:17:42.576Z,1.00
2019-02-23T22:20:17.684Z,1.00
2019-02-23T22:22:54.616Z,1.00
2019-02-23T22:25:29.470Z,1.00
2019-02-23T22:28:04.929Z,0.90
2019-02-23T22:30:40.010Z,1.00
2019-02-23T22:33:15.068Z,1.00
2019-02-23T22:35:50.089Z,1.00
2019-02-23T22:38:25.212Z,0.90
2019-02-23T22:41:00.238Z,0.90
2019-02-23T22:43:35.285Z,0.90
2019-02-23T22:46:10.313Z,0.90
2019-02-23T22:48:46.317Z,0.90
2019-02-23T22:51:21.338Z,0.90
2019-02-23T22:53:56.975Z,0.90
2019-02-23T22:56:32.342Z,0.90
2019-02-23T22:59:08.263Z,0.90
2019-02-23T23:01:45.186Z,0.90
2019-02-23T23:04:20.276Z,0.80
2019-02-23T23:06:55.669Z,0.80
2019-02-23T23:09:31.729Z,0.70
2019-02-23T23:12:06.839Z,0.60
2019-02-23T23:14:42.520Z,0.50
2019-02-23T23:17:17.559Z,0.50
2019-02-23T23:19:52.586Z,0.50
2019-02-23T23:22:27.924Z,0.50
2019-02-23T23:25:03.014Z,0.50
2019-02-23T23:27:38.147Z,0.50
2019-02-23T23:30:13.176Z,0.60
2019-02-23T23:32:48.469Z,0.50
2019-02-23T23:35:23.521Z,0.60
2019-02-23T23:37:58.945Z,0.60
2019-02-23T23:40:34.874Z,0.60
2019-02-23T23:43:10.345Z,0.60
2019-02-23T23:45:45.379Z,0.60
2019-02-23T23:48:20.722Z,0.60
2019-02-23T23:50:55.769Z,0.60
2019-02-23T23:53:31.103Z,0.60
2019-02-23T23:56:06.448Z,0.60
2019-02-23T23:58:41.789Z,0.60
